sensor_id;sensor_type;location;lat;lon;timestamp;pressure;altitude;pressure_sealevel;temperature;humidity
55990;BME280;41875;55.806;38.082;2022-11-20T00:01:32;99419.50;;;-0.88;66.08
55990;BME280;41875;55.806;38.082;2022-11-20T00:04:02;99419.84;;;-0.64;65.67
55990;BME280;41875;55.806;38.082;2022-11-20T00:06:31;99416.84;;;-0.72;64.91
55990;BME280;41875;55.806;38.082;2022-11-20T00:08:59;99422.16;;;-0.74;64.65
55990;BME280;41875;55.806;38.082;2022-11-20T00:11:29;99422.97;;;-0.73;65.60
55990;BME280;41875;55.806;38.082;2022-11-20T00:14:00;99431.19;;;-0.65;64.82
55990;BME280;41875;55.806;38.082;2022-11-20T00:16:31;99436.28;;;-0.64;65.07
55990;BME280;41875;55.806;38.082;2022-11-20T00:18:59;99426.34;;;-1.02;65.95
55990;BME280;41875;55.806;38.082;2022-11-20T00:21:30;99422.94;;;-0.88;65.57
55990;BME280;41875;55.806;38.082;2022-11-20T00:23:58;99448.25;;;-1.54;67.29
55990;BME280;41875;55.806;38.082;2022-11-20T00:26:27;99446.06;;;-1.46;67.88
55990;BME280;41875;55.806;38.082;2022-11-20T00:28:57;99425.69;;;-1.21;67.29
55990;BME280;41875;55.806;38.082;2022-11-20T00:31:26;99425.25;;;-1.14;66.93
55990;BME280;41875;55.806;38.082;2022-11-20T00:33:55;99429.63;;;-0.84;66.00
55990;BME280;41875;55.806;38.082;2022-11-20T00:36:25;99436.50;;;-0.83;65.66
55990;BME280;41875;55.806;38.082;2022-11-20T00:38:56;99430.41;;;-0.98;65.91
55990;BME280;41875;55.806;38.082;2022-11-20T00:41:26;99426.09;;;-0.83;65.50
55990;BME280;41875;55.806;38.082;2022-11-20T00:43:55;99441.66;;;-0.97;66.16
55990;BME280;41875;55.806;38.082;2022-11-20T00:46:25;99442.59;;;-0.98;65.27
55990;BME280;41875;55.806;38.082;2022-11-20T00:48:54;99446.06;;;-1.14;66.86
55990;BME280;41875;55.806;38.082;2022-11-20T00:51:24;99441.53;;;-0.80;66.05
55990;BME280;41875;55.806;38.082;2022-11-20T00:53:56;99440.84;;;-1.14;66.46
55990;BME280;41875;55.806;38.082;2022-11-20T00:56:25;99439.34;;;-1.18;66.79
55990;BME280;41875;55.806;38.082;2022-11-20T00:58:53;99430.28;;;-1.27;67.44
55990;BME280;41875;55.806;38.082;2022-11-20T01:01:23;99435.00;;;-1.49;67.00
55990;BME280;41875;55.806;38.082;2022-11-20T01:03:54;99425.16;;;-1.12;66.98
55990;BME280;41875;55.806;38.082;2022-11-20T01:06:24;99433.09;;;-0.83;65.30
55990;BME280;41875;55.806;38.082;2022-11-20T01:08:56;99428.28;;;-0.75;65.10
55990;BME280;41875;55.806;38.082;2022-11-20T01:11:26;99438.03;;;-0.79;66.08
55990;BME280;41875;55.806;38.082;2022-11-20T01:13:56;99441.88;;;-1.48;67.60
55990;BME280;41875;55.806;38.082;2022-11-20T01:16:27;99427.63;;;-0.79;66.06
55990;BME280;41875;55.806;38.082;2022-11-20T01:18:57;99438.72;;;-0.91;66.10
55990;BME280;41875;55.806;38.082;2022-11-20T01:21:28;99438.91;;;-1.10;66.62
55990;BME280;41875;55.806;38.082;2022-11-20T01:23:59;99416.25;;;-0.92;65.92
55990;BME280;41875;55.806;38.082;2022-11-20T01:26:30;99426.28;;;-0.55;64.48
55990;BME280;41875;55.806;38.082;2022-11-20T01:28:59;99418.97;;;-0.79;65.41
55990;BME280;41875;55.806;38.082;2022-11-20T01:31:29;99426.19;;;-1.15;66.56
55990;BME280;41875;55.806;38.082;2022-11-20T01:34:00;99427.72;;;-1.43;68.07
55990;BME280;41875;55.806;38.082;2022-11-20T01:36:29;99416.56;;;-1.29;67.62
55990;BME280;41875;55.806;38.082;2022-11-20T01:39:03;99450.25;;;-1.27;66.74
55990;BME280;41875;55.806;38.082;2022-11-20T01:41:33;99431.81;;;-1.06;65.85
55990;BME280;41875;55.806;38.082;2022-11-20T01:44:21;99434.53;;;-0.94;65.85
55990;BME280;41875;55.806;38.082;2022-11-20T01:46:55;99430.19;;;-1.09;66.90
55990;BME280;41875;55.806;38.082;2022-11-20T01:49:29;99432.69;;;-0.92;65.85
55990;BME280;41875;55.806;38.082;2022-11-20T01:52:05;99431.06;;;-0.64;64.64
55990;BME280;41875;55.806;38.082;2022-11-20T01:54:40;99444.03;;;-0.78;65.21
55990;BME280;41875;55.806;38.082;2022-11-20T01:57:12;99453.94;;;-1.31;66.52
55990;BME280;41875;55.806;38.082;2022-11-20T01:59:46;99443.88;;;-1.21;66.95
55990;BME280;41875;55.806;38.082;2022-11-20T02:02:19;99442.63;;;-1.14;66.79
55990;BME280;41875;55.806;38.082;2022-11-20T02:04:49;99448.97;;;-1.04;65.55
55990;BME280;41875;55.806;38.082;2022-11-20T02:07:20;99448.69;;;-0.83;65.16
55990;BME280;41875;55.806;38.082;2022-11-20T02:09:50;99454.81;;;-0.84;65.28
55990;BME280;41875;55.806;38.082;2022-11-20T02:12:24;99455.31;;;-0.78;64.88
55990;BME280;41875;55.806;38.082;2022-11-20T02:15:32;99459.63;;;-1.09;66.18
55990;BME280;41875;55.806;38.082;2022-11-20T02:18:01;99452.72;;;-0.94;65.47
55990;BME280;41875;55.806;38.082;2022-11-20T02:20:29;99459.22;;;-0.70;65.13
55990;BME280;41875;55.806;38.082;2022-11-20T02:23:02;99454.25;;;-1.05;66.25
55990;BME280;41875;55.806;38.082;2022-11-20T02:25:35;99447.69;;;-0.97;65.09
55990;BME280;41875;55.806;38.082;2022-11-20T02:28:05;99463.16;;;-1.10;66.25
55990;BME280;41875;55.806;38.082;2022-11-20T02:30:34;99466.09;;;-1.16;66.56
55990;BME280;41875;55.806;38.082;2022-11-20T02:33:02;99466.53;;;-1.24;66.81
55990;BME280;41875;55.806;38.082;2022-11-20T02:35:44;99480.75;;;-1.15;65.91
55990;BME280;41875;55.806;38.082;2022-11-20T02:38:14;99468.81;;;-0.87;64.80
55990;BME280;41875;55.806;38.082;2022-11-20T02:40:46;99473.31;;;-0.74;64.18
55990;BME280;41875;55.806;38.082;2022-11-20T02:43:21;99464.75;;;-0.46;63.02
55990;BME280;41875;55.806;38.082;2022-11-20T02:45:49;99471.09;;;-0.36;62.44
55990;BME280;41875;55.806;38.082;2022-11-20T02:48:18;99479.38;;;-0.29;63.15
55990;BME280;41875;55.806;38.082;2022-11-20T02:50:46;99474.13;;;-0.88;63.68
55990;BME280;41875;55.806;38.082;2022-11-20T02:53:14;99478.81;;;-0.65;63.93
55990;BME280;41875;55.806;38.082;2022-11-20T02:55:44;99480.69;;;-0.36;63.12
55990;BME280;41875;55.806;38.082;2022-11-20T02:58:13;99477.81;;;-0.17;61.35
55990;BME280;41875;55.806;38.082;2022-11-20T03:00:41;99484.16;;;-0.52;63.29
55990;BME280;41875;55.806;38.082;2022-11-20T03:03:10;99488.22;;;-0.93;64.67
55990;BME280;41875;55.806;38.082;2022-11-20T03:05:38;99476.75;;;-0.74;63.58
55990;BME280;41875;55.806;38.082;2022-11-20T03:08:07;99484.59;;;-0.90;63.72
55990;BME280;41875;55.806;38.082;2022-11-20T03:10:35;99485.72;;;-0.64;63.85
55990;BME280;41875;55.806;38.082;2022-11-20T03:13:04;99487.31;;;-0.61;64.08
55990;BME280;41875;55.806;38.082;2022-11-20T03:15:33;99490.09;;;-0.64;63.18
55990;BME280;41875;55.806;38.082;2022-11-20T03:18:03;99490.75;;;-0.91;64.58
55990;BME280;41875;55.806;38.082;2022-11-20T03:20:32;99483.72;;;-0.74;63.85
55990;BME280;41875;55.806;38.082;2022-11-20T03:23:02;99487.81;;;-0.70;63.56
55990;BME280;41875;55.806;38.082;2022-11-20T03:25:30;99493.00;;;-1.17;64.31
55990;BME280;41875;55.806;38.082;2022-11-20T03:27:59;99476.47;;;-0.53;62.82
55990;BME280;41875;55.806;38.082;2022-11-20T03:30:29;99480.47;;;-0.48;62.69
55990;BME280;41875;55.806;38.082;2022-11-20T03:32:57;99487.72;;;-0.83;63.74
55990;BME280;41875;55.806;38.082;2022-11-20T03:35:26;99492.38;;;-0.74;62.85
55990;BME280;41875;55.806;38.082;2022-11-20T03:37:54;99491.63;;;-0.76;62.68
55990;BME280;41875;55.806;38.082;2022-11-20T03:40:25;99487.19;;;-0.90;63.42
55990;BME280;41875;55.806;38.082;2022-11-20T03:42:54;99484.88;;;-0.64;62.71
55990;BME280;41875;55.806;38.082;2022-11-20T03:45:22;99492.59;;;-0.32;61.48
55990;BME280;41875;55.806;38.082;2022-11-20T03:47:54;99483.09;;;-0.94;63.51
55990;BME280;41875;55.806;38.082;2022-11-20T03:50:26;99489.81;;;-0.59;62.97
55990;BME280;41875;55.806;38.082;2022-11-20T03:52:54;99497.00;;;-0.49;62.57
55990;BME280;41875;55.806;38.082;2022-11-20T03:55:23;99486.91;;;-0.39;60.98
55990;BME280;41875;55.806;38.082;2022-11-20T03:57:51;99504.13;;;-0.52;62.42
55990;BME280;41875;55.806;38.082;2022-11-20T04:00:19;99492.56;;;-0.47;62.44
55990;BME280;41875;55.806;38.082;2022-11-20T04:02:50;99495.00;;;-0.14;61.00
55990;BME280;41875;55.806;38.082;2022-11-20T04:05:20;99497.25;;;-0.23;61.07
55990;BME280;41875;55.806;38.082;2022-11-20T04:07:49;99501.84;;;0.03;60.87
55990;BME280;41875;55.806;38.082;2022-11-20T04:10:17;99506.94;;;0.04;60.17
55990;BME280;41875;55.806;38.082;2022-11-20T04:12:45;99514.00;;;-0.12;61.44
55990;BME280;41875;55.806;38.082;2022-11-20T04:15:14;99512.00;;;-0.68;60.58
55990;BME280;41875;55.806;38.082;2022-11-20T04:17:43;99517.47;;;-1.21;63.73
55990;BME280;41875;55.806;38.082;2022-11-20T04:20:11;99518.44;;;-0.59;62.39
55990;BME280;41875;55.806;38.082;2022-11-20T04:22:41;99517.78;;;-0.79;62.10
55990;BME280;41875;55.806;38.082;2022-11-20T04:25:10;99519.09;;;-0.86;62.84
55990;BME280;41875;55.806;38.082;2022-11-20T04:27:38;99533.13;;;-0.74;63.08
55990;BME280;41875;55.806;38.082;2022-11-20T04:30:07;99526.25;;;-0.59;61.42
55990;BME280;41875;55.806;38.082;2022-11-20T04:32:37;99519.03;;;-0.54;61.73
55990;BME280;41875;55.806;38.082;2022-11-20T04:35:06;99537.94;;;-0.36;61.46
55990;BME280;41875;55.806;38.082;2022-11-20T04:37:34;99531.81;;;-0.98;61.98
55990;BME280;41875;55.806;38.082;2022-11-20T04:40:05;99526.56;;;-0.50;61.08
55990;BME280;41875;55.806;38.082;2022-11-20T04:42:34;99529.16;;;-0.50;61.47
55990;BME280;41875;55.806;38.082;2022-11-20T04:45:03;99530.38;;;-0.10;60.49
55990;BME280;41875;55.806;38.082;2022-11-20T04:47:31;99543.16;;;-0.83;61.32
55990;BME280;41875;55.806;38.082;2022-11-20T04:49:59;99547.66;;;-0.54;61.23
55990;BME280;41875;55.806;38.082;2022-11-20T04:52:29;99556.81;;;-0.79;62.05
55990;BME280;41875;55.806;38.082;2022-11-20T04:54:57;99552.03;;;-0.40;60.59
55990;BME280;41875;55.806;38.082;2022-11-20T04:57:27;99553.59;;;-0.22;60.33
55990;BME280;41875;55.806;38.082;2022-11-20T04:59:56;99565.75;;;-0.22;59.76
55990;BME280;41875;55.806;38.082;2022-11-20T05:02:24;99558.63;;;-0.19;61.01
55990;BME280;41875;55.806;38.082;2022-11-20T05:04:52;99556.22;;;-0.68;60.89
55990;BME280;41875;55.806;38.082;2022-11-20T05:07:21;99557.78;;;-0.19;59.33
55990;BME280;41875;55.806;38.082;2022-11-20T05:09:49;99564.38;;;-0.13;59.32
55990;BME280;41875;55.806;38.082;2022-11-20T05:12:18;99568.63;;;-1.05;61.90
55990;BME280;41875;55.806;38.082;2022-11-20T05:14:48;99567.22;;;-0.63;60.99
55990;BME280;41875;55.806;38.082;2022-11-20T05:17:16;99569.41;;;-1.03;62.07
55990;BME280;41875;55.806;38.082;2022-11-20T05:19:45;99569.56;;;-0.90;61.34
55990;BME280;41875;55.806;38.082;2022-11-20T05:22:19;99576.56;;;-0.91;61.64
55990;BME280;41875;55.806;38.082;2022-11-20T05:24:47;99579.22;;;-0.77;61.21
55990;BME280;41875;55.806;38.082;2022-11-20T05:27:15;99581.53;;;-0.40;60.37
55990;BME280;41875;55.806;38.082;2022-11-20T05:29:44;99585.56;;;0.11;59.00
55990;BME280;41875;55.806;38.082;2022-11-20T05:32:14;99596.13;;;-0.37;59.97
55990;BME280;41875;55.806;38.082;2022-11-20T05:34:42;99590.84;;;-0.05;58.83
55990;BME280;41875;55.806;38.082;2022-11-20T05:37:11;99595.69;;;-0.29;59.33
55990;BME280;41875;55.806;38.082;2022-11-20T05:39:39;99597.19;;;-0.72;60.68
55990;BME280;41875;55.806;38.082;2022-11-20T05:42:07;99609.94;;;-0.67;60.21
55990;BME280;41875;55.806;38.082;2022-11-20T05:44:54;99604.13;;;-0.56;60.35
55990;BME280;41875;55.806;38.082;2022-11-20T05:47:23;99607.00;;;-0.61;60.25
55990;BME280;41875;55.806;38.082;2022-11-20T05:49:52;99609.28;;;-0.24;59.01
55990;BME280;41875;55.806;38.082;2022-11-20T05:52:21;99601.81;;;-0.31;58.93
55990;BME280;41875;55.806;38.082;2022-11-20T05:54:49;99606.41;;;-0.98;60.30
55990;BME280;41875;55.806;38.082;2022-11-20T05:57:18;99607.84;;;-0.77;61.44
55990;BME280;41875;55.806;38.082;2022-11-20T05:59:46;99619.06;;;-0.60;59.84
55990;BME280;41875;55.806;38.082;2022-11-20T06:02:15;99619.81;;;-1.22;61.42
55990;BME280;41875;55.806;38.082;2022-11-20T06:04:44;99624.03;;;-0.55;60.85
55990;BME280;41875;55.806;38.082;2022-11-20T06:07:13;99625.41;;;-0.34;58.88
55990;BME280;41875;55.806;38.082;2022-11-20T06:09:41;99634.75;;;-1.10;60.76
55990;BME280;41875;55.806;38.082;2022-11-20T06:12:10;99645.00;;;-0.58;58.85
55990;BME280;41875;55.806;38.082;2022-11-20T06:14:38;99639.78;;;-0.74;59.88
55990;BME280;41875;55.806;38.082;2022-11-20T06:17:07;99630.81;;;-0.53;59.30
55990;BME280;41875;55.806;38.082;2022-11-20T06:19:35;99634.09;;;-0.03;57.88
55990;BME280;41875;55.806;38.082;2022-11-20T06:22:05;99647.06;;;-0.17;58.39
55990;BME280;41875;55.806;38.082;2022-11-20T06:24:34;99640.25;;;0.11;58.23
55990;BME280;41875;55.806;38.082;2022-11-20T06:27:02;99645.34;;;-0.49;58.88
55990;BME280;41875;55.806;38.082;2022-11-20T06:29:31;99649.84;;;-1.00;60.20
55990;BME280;41875;55.806;38.082;2022-11-20T06:32:00;99646.81;;;-1.09;60.75
55990;BME280;41875;55.806;38.082;2022-11-20T06:34:28;99655.06;;;-0.68;59.97
55990;BME280;41875;55.806;38.082;2022-11-20T06:36:56;99665.59;;;-1.19;60.92
55990;BME280;41875;55.806;38.082;2022-11-20T06:39:26;99684.50;;;-0.04;58.41
55990;BME280;41875;55.806;38.082;2022-11-20T06:41:55;99680.19;;;-0.35;57.28
55990;BME280;41875;55.806;38.082;2022-11-20T06:44:25;99685.72;;;0.05;57.37
55990;BME280;41875;55.806;38.082;2022-11-20T06:46:54;99692.50;;;-0.55;58.32
55990;BME280;41875;55.806;38.082;2022-11-20T06:49:22;99689.13;;;-0.09;56.86
55990;BME280;41875;55.806;38.082;2022-11-20T06:51:52;99691.47;;;-0.20;57.11
55990;BME280;41875;55.806;38.082;2022-11-20T06:54:21;99684.09;;;0.49;55.86
55990;BME280;41875;55.806;38.082;2022-11-20T06:56:51;99679.84;;;0.91;53.96
55990;BME280;41875;55.806;38.082;2022-11-20T06:59:19;99681.50;;;0.49;54.78
55990;BME280;41875;55.806;38.082;2022-11-20T07:01:48;99676.06;;;-0.39;56.08
55990;BME280;41875;55.806;38.082;2022-11-20T07:04:17;99680.31;;;-0.06;56.53
55990;BME280;41875;55.806;38.082;2022-11-20T07:06:45;99675.63;;;0.15;56.22
55990;BME280;41875;55.806;38.082;2022-11-20T07:09:14;99668.50;;;-0.76;58.26
55990;BME280;41875;55.806;38.082;2022-11-20T07:11:43;99672.31;;;-1.15;59.28
55990;BME280;41875;55.806;38.082;2022-11-20T07:14:13;99668.50;;;-0.44;58.09
55990;BME280;41875;55.806;38.082;2022-11-20T07:16:41;99670.38;;;-0.62;57.59
55990;BME280;41875;55.806;38.082;2022-11-20T07:19:09;99678.28;;;-0.97;58.34
55990;BME280;41875;55.806;38.082;2022-11-20T07:21:38;99673.56;;;-1.58;60.70
55990;BME280;41875;55.806;38.082;2022-11-20T07:24:07;99671.59;;;-0.85;57.33
55990;BME280;41875;55.806;38.082;2022-11-20T07:26:35;99668.69;;;-1.29;58.56
55990;BME280;41875;55.806;38.082;2022-11-20T07:29:04;99691.28;;;-0.97;57.72
55990;BME280;41875;55.806;38.082;2022-11-20T07:31:34;99674.78;;;-0.48;56.63
55990;BME280;41875;55.806;38.082;2022-11-20T07:34:03;99688.53;;;-0.30;55.11
55990;BME280;41875;55.806;38.082;2022-11-20T07:36:31;99691.47;;;-0.04;54.83
55990;BME280;41875;55.806;38.082;2022-11-20T07:39:00;99691.31;;;-0.01;54.32
55990;BME280;41875;55.806;38.082;2022-11-20T07:41:29;99697.50;;;0.12;55.40
55990;BME280;41875;55.806;38.082;2022-11-20T07:43:58;99694.34;;;0.52;53.08
55990;BME280;41875;55.806;38.082;2022-11-20T07:46:27;99699.97;;;-0.81;55.40
55990;BME280;41875;55.806;38.082;2022-11-20T07:48:57;99701.25;;;-0.08;54.09
55990;BME280;41875;55.806;38.082;2022-11-20T07:51:25;99694.03;;;0.12;53.17
55990;BME280;41875;55.806;38.082;2022-11-20T07:53:54;99701.47;;;-0.12;55.29
55990;BME280;41875;55.806;38.082;2022-11-20T07:56:52;99696.94;;;0.38;54.66
55990;BME280;41875;55.806;38.082;2022-11-20T07:59:23;99694.50;;;-0.28;54.41
55990;BME280;41875;55.806;38.082;2022-11-20T08:01:52;99696.38;;;-0.46;54.82
55990;BME280;41875;55.806;38.082;2022-11-20T08:04:23;99694.03;;;0.12;54.39
55990;BME280;41875;55.806;38.082;2022-11-20T08:06:52;99706.78;;;0.17;54.03
55990;BME280;41875;55.806;38.082;2022-11-20T08:09:20;99696.06;;;0.68;52.75
55990;BME280;41875;55.806;38.082;2022-11-20T08:12:05;99703.09;;;0.51;52.68
55990;BME280;41875;55.806;38.082;2022-11-20T08:15:32;99674.47;;;-0.74;55.08
55990;BME280;41875;55.806;38.082;2022-11-20T08:18:11;99696.63;;;-1.16;57.30
55990;BME280;41875;55.806;38.082;2022-11-20T08:21:03;99690.41;;;-0.64;57.27
55990;BME280;41875;55.806;38.082;2022-11-20T08:23:32;99712.41;;;-0.38;56.76
55990;BME280;41875;55.806;38.082;2022-11-20T08:26:00;99709.41;;;0.47;54.57
55990;BME280;41875;55.806;38.082;2022-11-20T08:28:28;99717.09;;;-0.77;55.54
55990;BME280;41875;55.806;38.082;2022-11-20T08:31:00;99717.25;;;0.31;54.27
55990;BME280;41875;55.806;38.082;2022-11-20T08:33:29;99712.84;;;-0.45;54.94
55990;BME280;41875;55.806;38.082;2022-11-20T08:36:00;99708.88;;;-0.53;55.99
55990;BME280;41875;55.806;38.082;2022-11-20T08:38:30;99716.88;;;0.23;54.39
55990;BME280;41875;55.806;38.082;2022-11-20T08:41:00;99707.41;;;0.36;53.91
55990;BME280;41875;55.806;38.082;2022-11-20T08:43:46;99710.72;;;0.54;52.49
55990;BME280;41875;55.806;38.082;2022-11-20T08:46:14;99707.31;;;1.12;51.58
55990;BME280;41875;55.806;38.082;2022-11-20T08:48:43;99716.00;;;-0.08;54.67
55990;BME280;41875;55.806;38.082;2022-11-20T08:51:12;99718.63;;;-0.40;55.37
55990;BME280;41875;55.806;38.082;2022-11-20T08:53:42;99719.34;;;0.10;54.53
55990;BME280;41875;55.806;38.082;2022-11-20T08:56:11;99716.44;;;0.30;53.89
55990;BME280;41875;55.806;38.082;2022-11-20T08:58:40;99709.88;;;-0.07;54.47
55990;BME280;41875;55.806;38.082;2022-11-20T09:01:29;99725.78;;;0.19;53.92
55990;BME280;41875;55.806;38.082;2022-11-20T09:03:57;99739.41;;;0.69;53.06
55990;BME280;41875;55.806;38.082;2022-11-20T09:06:27;99743.19;;;0.18;53.74
55990;BME280;41875;55.806;38.082;2022-11-20T09:08:56;99742.22;;;-0.27;55.22
55990;BME280;41875;55.806;38.082;2022-11-20T09:11:32;99762.03;;;-0.41;56.44
55990;BME280;41875;55.806;38.082;2022-11-20T09:14:00;99770.50;;;0.11;54.32
55990;BME280;41875;55.806;38.082;2022-11-20T09:16:29;99770.53;;;-0.37;55.67
55990;BME280;41875;55.806;38.082;2022-11-20T09:18:58;99775.97;;;-0.26;55.81
55990;BME280;41875;55.806;38.082;2022-11-20T09:21:46;99761.34;;;-0.12;55.06
55990;BME280;41875;55.806;38.082;2022-11-20T09:24:18;99777.22;;;0.62;53.73
55990;BME280;41875;55.806;38.082;2022-11-20T09:26:50;99780.31;;;0.38;52.93
55990;BME280;41875;55.806;38.082;2022-11-20T09:29:21;99786.81;;;-0.34;55.21
55990;BME280;41875;55.806;38.082;2022-11-20T09:31:51;99783.78;;;-0.42;55.45
55990;BME280;41875;55.806;38.082;2022-11-20T09:34:19;99785.03;;;-0.49;55.95
55990;BME280;41875;55.806;38.082;2022-11-20T09:36:48;99791.66;;;-0.43;55.84
55990;BME280;41875;55.806;38.082;2022-11-20T09:39:18;99789.25;;;0.02;54.57
55990;BME280;41875;55.806;38.082;2022-11-20T09:41:58;99805.16;;;-0.03;55.47
55990;BME280;41875;55.806;38.082;2022-11-20T09:45:02;99809.06;;;0.36;54.66
55990;BME280;41875;55.806;38.082;2022-11-20T09:47:47;99813.09;;;-0.38;55.75
55990;BME280;41875;55.806;38.082;2022-11-20T09:50:27;99805.94;;;-0.51;56.54
55990;BME280;41875;55.806;38.082;2022-11-20T09:53:12;99814.25;;;-0.28;55.94
55990;BME280;41875;55.806;38.082;2022-11-20T09:55:45;99818.22;;;-0.70;56.93
55990;BME280;41875;55.806;38.082;2022-11-20T09:58:24;99824.88;;;0.17;54.76
55990;BME280;41875;55.806;38.082;2022-11-20T10:00:57;99826.47;;;-0.28;56.14
55990;BME280;41875;55.806;38.082;2022-11-20T10:03:37;99812.84;;;-0.34;56.39
55990;BME280;41875;55.806;38.082;2022-11-20T10:06:12;99804.53;;;0.08;54.84
55990;BME280;41875;55.806;38.082;2022-11-20T10:08:44;99808.22;;;-0.12;55.76
55990;BME280;41875;55.806;38.082;2022-11-20T10:11:19;99811.28;;;-0.54;56.75
55990;BME280;41875;55.806;38.082;2022-11-20T10:14:02;99816.69;;;-0.41;56.53
55990;BME280;41875;55.806;38.082;2022-11-20T10:16:42;99814.97;;;-0.24;56.01
55990;BME280;41875;55.806;38.082;2022-11-20T10:19:27;99807.13;;;-0.40;56.42
55990;BME280;41875;55.806;38.082;2022-11-20T10:22:06;99817.38;;;-0.21;56.07
55990;BME280;41875;55.806;38.082;2022-11-20T10:24:43;99818.22;;;0.27;54.81
55990;BME280;41875;55.806;38.082;2022-11-20T10:27:29;99819.84;;;0.30;55.06
55990;BME280;41875;55.806;38.082;2022-11-20T10:30:02;99808.31;;;0.18;55.41
55990;BME280;41875;55.806;38.082;2022-11-20T10:32:36;99823.38;;;0.75;53.67
55990;BME280;41875;55.806;38.082;2022-11-20T10:35:16;99834.31;;;-0.30;56.93
55990;BME280;41875;55.806;38.082;2022-11-20T10:37:50;99835.38;;;-0.50;57.42
55990;BME280;41875;55.806;38.082;2022-11-20T10:40:30;99826.22;;;-0.57;57.69
55990;BME280;41875;55.806;38.082;2022-11-20T10:43:10;99829.34;;;-0.51;57.70
55990;BME280;41875;55.806;38.082;2022-11-20T10:45:48;99827.34;;;-0.45;58.60
55990;BME280;41875;55.806;38.082;2022-11-20T10:48:21;99842.19;;;-0.14;56.78
55990;BME280;41875;55.806;38.082;2022-11-20T10:50:59;99840.59;;;0.32;55.82
55990;BME280;41875;55.806;38.082;2022-11-20T10:53:42;99837.66;;;0.06;57.04
55990;BME280;41875;55.806;38.082;2022-11-20T10:56:18;99844.63;;;0.21;55.95
55990;BME280;41875;55.806;38.082;2022-11-20T10:58:59;99842.59;;;-0.06;56.95
55990;BME280;41875;55.806;38.082;2022-11-20T11:01:29;99845.84;;;-0.18;56.90
55990;BME280;41875;55.806;38.082;2022-11-20T11:03:58;99838.03;;;-0.34;57.96
55990;BME280;41875;55.806;38.082;2022-11-20T11:06:34;99850.00;;;0.02;57.16
55990;BME280;41875;55.806;38.082;2022-11-20T11:09:08;99849.25;;;0.16;56.69
55990;BME280;41875;55.806;38.082;2022-11-20T11:11:40;99847.16;;;0.07;57.33
55990;BME280;41875;55.806;38.082;2022-11-20T11:14:12;99845.53;;;-0.12;57.70
55990;BME280;41875;55.806;38.082;2022-11-20T11:16:50;99853.09;;;0.09;57.55
55990;BME280;41875;55.806;38.082;2022-11-20T11:19:19;99855.72;;;0.25;57.38
55990;BME280;41875;55.806;38.082;2022-11-20T11:21:50;99860.09;;;0.24;57.09
55990;BME280;41875;55.806;38.082;2022-11-20T11:24:23;99869.75;;;-0.10;58.01
55990;BME280;41875;55.806;38.082;2022-11-20T11:27:12;99867.19;;;-0.11;58.42
55990;BME280;41875;55.806;38.082;2022-11-20T11:29:45;99868.56;;;-0.38;59.28
55990;BME280;41875;55.806;38.082;2022-11-20T11:32:15;99858.91;;;-0.52;59.67
55990;BME280;41875;55.806;38.082;2022-11-20T11:34:44;99867.63;;;-0.53;60.23
55990;BME280;41875;55.806;38.082;2022-11-20T11:37:17;99865.28;;;-0.41;60.54
55990;BME280;41875;55.806;38.082;2022-11-20T11:39:48;99865.19;;;-0.73;61.49
55990;BME280;41875;55.806;38.082;2022-11-20T11:42:41;99861.75;;;-0.74;61.78
55990;BME280;41875;55.806;38.082;2022-11-20T11:45:14;99859.84;;;-0.70;61.61
55990;BME280;41875;55.806;38.082;2022-11-20T11:47:46;99862.41;;;-0.53;61.78
55990;BME280;41875;55.806;38.082;2022-11-20T11:50:18;99864.53;;;-0.43;60.67
55990;BME280;41875;55.806;38.082;2022-11-20T11:52:53;99864.41;;;-0.58;61.85
55990;BME280;41875;55.806;38.082;2022-11-20T11:55:31;99871.44;;;-0.60;62.09
55990;BME280;41875;55.806;38.082;2022-11-20T11:58:11;99874.38;;;-0.66;62.22
55990;BME280;41875;55.806;38.082;2022-11-20T12:00:51;99874.50;;;-0.52;61.91
55990;BME280;41875;55.806;38.082;2022-11-20T12:03:27;99865.16;;;-0.38;61.19
55990;BME280;41875;55.806;38.082;2022-11-20T12:06:01;99865.25;;;-0.24;60.61
55990;BME280;41875;55.806;38.082;2022-11-20T12:08:35;99878.31;;;-0.41;61.47
55990;BME280;41875;55.806;38.082;2022-11-20T12:11:12;99883.34;;;-0.54;61.93
55990;BME280;41875;55.806;38.082;2022-11-20T12:13:46;99873.75;;;-0.54;61.27
55990;BME280;41875;55.806;38.082;2022-11-20T12:16:19;99885.00;;;-0.20;61.05
55990;BME280;41875;55.806;38.082;2022-11-20T12:18:51;99880.22;;;-0.11;60.10
55990;BME280;41875;55.806;38.082;2022-11-20T12:21:26;99884.13;;;-0.36;61.34
55990;BME280;41875;55.806;38.082;2022-11-20T12:24:11;99873.59;;;0.31;59.23
55990;BME280;41875;55.806;38.082;2022-11-20T12:26:52;99884.97;;;-0.02;59.57
55990;BME280;41875;55.806;38.082;2022-11-20T12:29:33;99883.28;;;-0.37;60.98
55990;BME280;41875;55.806;38.082;2022-11-20T12:32:23;99892.25;;;-0.42;61.41
55990;BME280;41875;55.806;38.082;2022-11-20T12:35:07;99881.56;;;-0.54;61.64
55990;BME280;41875;55.806;38.082;2022-11-20T12:37:47;99886.75;;;-0.54;60.40
55990;BME280;41875;55.806;38.082;2022-11-20T12:40:28;99881.00;;;-0.43;60.62
55990;BME280;41875;55.806;38.082;2022-11-20T12:43:06;99870.63;;;-0.27;60.59
55990;BME280;41875;55.806;38.082;2022-11-20T12:46:08;99870.31;;;-0.54;61.28
55990;BME280;41875;55.806;38.082;2022-11-20T12:49:01;99871.94;;;-0.69;61.83
55990;BME280;41875;55.806;38.082;2022-11-20T12:51:45;99871.50;;;-0.10;60.78
55990;BME280;41875;55.806;38.082;2022-11-20T12:54:39;99878.41;;;-0.43;61.04
55990;BME280;41875;55.806;38.082;2022-11-20T12:57:16;99873.28;;;-0.11;60.71
55990;BME280;41875;55.806;38.082;2022-11-20T13:05:58;99883.63;;;-0.78;61.98
55990;BME280;41875;55.806;38.082;2022-11-20T13:08:30;99885.69;;;-0.67;61.63
55990;BME280;41875;55.806;38.082;2022-11-20T13:11:07;99892.25;;;-0.60;61.89
55990;BME280;41875;55.806;38.082;2022-11-20T13:13:45;99909.41;;;-0.56;61.88
55990;BME280;41875;55.806;38.082;2022-11-20T13:16:20;99898.31;;;-0.42;61.42
55990;BME280;41875;55.806;38.082;2022-11-20T13:18:53;99904.47;;;-0.27;61.14
55990;BME280;41875;55.806;38.082;2022-11-20T13:21:35;99898.88;;;-0.37;61.18
55990;BME280;41875;55.806;38.082;2022-11-20T13:24:05;99913.03;;;-0.58;61.24
55990;BME280;41875;55.806;38.082;2022-11-20T13:26:34;99913.03;;;-0.58;61.25